CWWU

Ingenika Point Airport

Long Pond, Canada
METAR CWWU 210900Z 16023G30KT 12SM -DZ BKN007 OVC013 02/01 A2989 RMK SF6SC1 T6066 MOON DIMLY VISBL SLP122
Observed Flight Rules
Jan-21 @ 09:00 UTC (54 minutes ago) Instrument Flight Rules
Wind Visibility Clouds Conditions
160° at 23 knots
 Gusting to 30 knots
12 miles
  • Broken at 700' AGL
  • Overcast at 1,300' AGL
  • Light Drizzle
Temperatures Readings
Current 2°C / 36°F
Dewpoint 1°C / 34°F
Humidity 93%
Altimeter 29.89" Hg
Pressure 1012.2 hPa
Elevation 13
METAR CWWU 210900Z 16023G30KT 12SM -DZ BKN007 OVC013 02/01 A2989 RMK SF6SC1 T6066 MOON DIMLY VISBL SLP122
Observed Flight Rules
Jan-21 @ 09:00 UTC
(54 minutes ago)
IFR
Wind Visibility
160° at 23 knots
 Gusting to 30 knots
12 miles
Clouds
  • Broken at 700' AGL
  • Overcast at 1,300' AGL
Conditions
  • Light Drizzle
Temperature Dewpoint
2°C / 36°F 1°C / 34°F
Humidity Altimeter Pressure
93% 29.89" Hg 1012.2 hPa